sensor_id;sensor_type;location;lat;lon;timestamp;pressure;altitude;pressure_sealevel;temperature;humidity
35551;BME280;21655;46.056;13.616;2023-06-10T00:01:44;100021.13;;;19.03;100.00
35551;BME280;21655;46.056;13.616;2023-06-10T00:04:12;100015.50;;;19.03;100.00
35551;BME280;21655;46.056;13.616;2023-06-10T00:06:37;100018.44;;;19.08;100.00
35551;BME280;21655;46.056;13.616;2023-06-10T00:09:05;100016.34;;;19.15;100.00
35551;BME280;21655;46.056;13.616;2023-06-10T00:11:33;100016.53;;;19.20;100.00
35551;BME280;21655;46.056;13.616;2023-06-10T00:13:59;100014.66;;;19.26;100.00
35551;BME280;21655;46.056;13.616;2023-06-10T00:16:25;100004.53;;;19.25;100.00
35551;BME280;21655;46.056;13.616;2023-06-10T00:18:51;100005.28;;;19.20;100.00
35551;BME280;21655;46.056;13.616;2023-06-10T00:21:16;100003.41;;;19.14;100.00
35551;BME280;21655;46.056;13.616;2023-06-10T00:23:42;100005.09;;;19.15;100.00
35551;BME280;21655;46.056;13.616;2023-06-10T00:26:08;100013.44;;;19.10;100.00
35551;BME280;21655;46.056;13.616;2023-06-10T00:28:34;100005.59;;;18.90;100.00
35551;BME280;21655;46.056;13.616;2023-06-10T00:31:00;100014.25;;;18.88;100.00
35551;BME280;21655;46.056;13.616;2023-06-10T00:33:25;100005.94;;;18.82;100.00
35551;BME280;21655;46.056;13.616;2023-06-10T00:35:51;100005.59;;;18.78;100.00
35551;BME280;21655;46.056;13.616;2023-06-10T00:38:17;100001.19;;;18.82;100.00
35551;BME280;21655;46.056;13.616;2023-06-10T00:40:42;99998.72;;;18.86;100.00
35551;BME280;21655;46.056;13.616;2023-06-10T00:43:08;99993.25;;;18.79;100.00
35551;BME280;21655;46.056;13.616;2023-06-10T00:45:33;100002.88;;;18.72;100.00
35551;BME280;21655;46.056;13.616;2023-06-10T00:48:00;99994.81;;;18.75;100.00
35551;BME280;21655;46.056;13.616;2023-06-10T00:50:26;99996.41;;;18.71;100.00
35551;BME280;21655;46.056;13.616;2023-06-10T00:52:51;99995.50;;;18.59;100.00
35551;BME280;21655;46.056;13.616;2023-06-10T00:55:19;99986.63;;;18.62;100.00
35551;BME280;21655;46.056;13.616;2023-06-10T00:57:46;99994.78;;;18.64;100.00
35551;BME280;21655;46.056;13.616;2023-06-10T01:00:14;99991.38;;;18.62;100.00
35551;BME280;21655;46.056;13.616;2023-06-10T01:02:41;99988.66;;;18.55;100.00
35551;BME280;21655;46.056;13.616;2023-06-10T01:05:07;99976.94;;;18.58;100.00
35551;BME280;21655;46.056;13.616;2023-06-10T01:07:40;99979.16;;;18.56;100.00
35551;BME280;21655;46.056;13.616;2023-06-10T01:10:12;99968.53;;;18.58;100.00
35551;BME280;21655;46.056;13.616;2023-06-10T01:12:59;99970.22;;;18.48;100.00
35551;BME280;21655;46.056;13.616;2023-06-10T01:15:29;99969.50;;;18.52;100.00
35551;BME280;21655;46.056;13.616;2023-06-10T01:17:56;99965.81;;;18.52;100.00
35551;BME280;21655;46.056;13.616;2023-06-10T01:20:23;99966.56;;;18.47;100.00
35551;BME280;21655;46.056;13.616;2023-06-10T01:22:49;99967.19;;;18.49;100.00
35551;BME280;21655;46.056;13.616;2023-06-10T01:25:16;99967.53;;;18.53;100.00
35551;BME280;21655;46.056;13.616;2023-06-10T01:27:45;99969.59;;;18.46;100.00
35551;BME280;21655;46.056;13.616;2023-06-10T01:30:15;99971.41;;;18.40;100.00
35551;BME280;21655;46.056;13.616;2023-06-10T01:32:45;99970.91;;;18.32;100.00
35551;BME280;21655;46.056;13.616;2023-06-10T01:35:11;99967.72;;;18.28;100.00
35551;BME280;21655;46.056;13.616;2023-06-10T01:37:43;99963.97;;;18.34;100.00
35551;BME280;21655;46.056;13.616;2023-06-10T01:40:11;99962.63;;;18.19;100.00
35551;BME280;21655;46.056;13.616;2023-06-10T01:42:37;99962.91;;;18.17;100.00
35551;BME280;21655;46.056;13.616;2023-06-10T01:45:03;99960.41;;;18.09;100.00
35551;BME280;21655;46.056;13.616;2023-06-10T01:47:29;99958.47;;;18.10;100.00
35551;BME280;21655;46.056;13.616;2023-06-10T01:49:54;99958.97;;;18.07;100.00
35551;BME280;21655;46.056;13.616;2023-06-10T01:52:20;99967.50;;;18.12;100.00
35551;BME280;21655;46.056;13.616;2023-06-10T01:54:45;99962.03;;;18.17;100.00
35551;BME280;21655;46.056;13.616;2023-06-10T01:57:11;99969.97;;;18.20;100.00
35551;BME280;21655;46.056;13.616;2023-06-10T01:59:36;99971.22;;;18.24;100.00
35551;BME280;21655;46.056;13.616;2023-06-10T02:02:04;99966.94;;;18.21;100.00
35551;BME280;21655;46.056;13.616;2023-06-10T02:04:29;99968.41;;;18.24;100.00
35551;BME280;21655;46.056;13.616;2023-06-10T02:06:55;99968.50;;;18.17;100.00
35551;BME280;21655;46.056;13.616;2023-06-10T02:09:21;99965.09;;;18.15;100.00
35551;BME280;21655;46.056;13.616;2023-06-10T02:11:48;99965.81;;;18.11;100.00
35551;BME280;21655;46.056;13.616;2023-06-10T02:14:14;99966.28;;;18.08;100.00
35551;BME280;21655;46.056;13.616;2023-06-10T02:16:40;99975.38;;;17.92;100.00
35551;BME280;21655;46.056;13.616;2023-06-10T02:19:05;99968.41;;;17.94;100.00
35551;BME280;21655;46.056;13.616;2023-06-10T02:21:31;99962.47;;;18.02;100.00
35551;BME280;21655;46.056;13.616;2023-06-10T02:23:57;99967.22;;;18.02;100.00
35551;BME280;21655;46.056;13.616;2023-06-10T02:26:22;99966.59;;;18.00;100.00
35551;BME280;21655;46.056;13.616;2023-06-10T02:28:48;99968.59;;;18.11;100.00
35551;BME280;21655;46.056;13.616;2023-06-10T02:31:13;99969.44;;;18.11;100.00
35551;BME280;21655;46.056;13.616;2023-06-10T02:33:39;99965.81;;;18.11;100.00
35551;BME280;21655;46.056;13.616;2023-06-10T02:36:05;99965.81;;;18.11;100.00
35551;BME280;21655;46.056;13.616;2023-06-10T02:38:31;99963.22;;;18.09;100.00
35551;BME280;21655;46.056;13.616;2023-06-10T02:40:56;99971.03;;;18.07;100.00
35551;BME280;21655;46.056;13.616;2023-06-10T02:43:22;99967.72;;;18.10;100.00
35551;BME280;21655;46.056;13.616;2023-06-10T02:45:47;99969.94;;;18.08;100.00
35551;BME280;21655;46.056;13.616;2023-06-10T02:48:12;99971.06;;;18.19;100.00
35551;BME280;21655;46.056;13.616;2023-06-10T02:50:38;99974.75;;;18.19;100.00
35551;BME280;21655;46.056;13.616;2023-06-10T02:53:05;99966.72;;;18.23;100.00
35551;BME280;21655;46.056;13.616;2023-06-10T02:55:31;99968.56;;;18.29;100.00
35551;BME280;21655;46.056;13.616;2023-06-10T02:57:57;99974.00;;;18.42;100.00
35551;BME280;21655;46.056;13.616;2023-06-10T03:00:23;99968.00;;;18.38;100.00
35551;BME280;21655;46.056;13.616;2023-06-10T03:02:48;99974.31;;;18.34;100.00
35551;BME280;21655;46.056;13.616;2023-06-10T03:05:14;99974.31;;;18.34;100.00
35551;BME280;21655;46.056;13.616;2023-06-10T03:07:40;99971.19;;;18.42;100.00
35551;BME280;21655;46.056;13.616;2023-06-10T03:10:06;99971.66;;;18.39;100.00
35551;BME280;21655;46.056;13.616;2023-06-10T03:12:32;99984.63;;;18.40;100.00
35551;BME280;21655;46.056;13.616;2023-06-10T03:14:57;99969.97;;;18.38;100.00
35551;BME280;21655;46.056;13.616;2023-06-10T03:17:23;99969.13;;;18.49;100.00
35551;BME280;21655;46.056;13.616;2023-06-10T03:19:48;99961.19;;;18.57;100.00
35551;BME280;21655;46.056;13.616;2023-06-10T03:22:15;99960.09;;;18.58;100.00
35551;BME280;21655;46.056;13.616;2023-06-10T03:24:41;99962.19;;;18.63;100.00
35551;BME280;21655;46.056;13.616;2023-06-10T03:27:09;99967.31;;;18.66;100.00
35551;BME280;21655;46.056;13.616;2023-06-10T03:29:36;99968.69;;;18.75;100.00
35551;BME280;21655;46.056;13.616;2023-06-10T03:32:02;99969.28;;;18.77;100.00
35551;BME280;21655;46.056;13.616;2023-06-10T03:34:28;99978.94;;;18.81;100.00
35551;BME280;21655;46.056;13.616;2023-06-10T03:36:53;99965.28;;;18.84;100.00
35551;BME280;21655;46.056;13.616;2023-06-10T03:39:19;99972.22;;;18.82;100.00
35551;BME280;21655;46.056;13.616;2023-06-10T03:41:44;99969.66;;;18.80;100.00
35551;BME280;21655;46.056;13.616;2023-06-10T03:44:10;99970.28;;;18.82;100.00
35551;BME280;21655;46.056;13.616;2023-06-10T03:46:35;99975.19;;;18.87;100.00
35551;BME280;21655;46.056;13.616;2023-06-10T03:49:00;99978.34;;;18.90;100.00
35551;BME280;21655;46.056;13.616;2023-06-10T03:51:26;99972.72;;;18.90;100.00
35551;BME280;21655;46.056;13.616;2023-06-10T03:53:52;99977.84;;;18.82;100.00
35551;BME280;21655;46.056;13.616;2023-06-10T03:56:18;99980.53;;;18.77;100.00
35551;BME280;21655;46.056;13.616;2023-06-10T03:58:43;99978.56;;;18.77;100.00
35551;BME280;21655;46.056;13.616;2023-06-10T04:01:08;99976.75;;;18.83;100.00
35551;BME280;21655;46.056;13.616;2023-06-10T04:03:34;99974.91;;;18.99;100.00
35551;BME280;21655;46.056;13.616;2023-06-10T04:05:59;99973.84;;;19.12;100.00
35551;BME280;21655;46.056;13.616;2023-06-10T04:08:25;99985.34;;;19.22;100.00
35551;BME280;21655;46.056;13.616;2023-06-10T04:10:50;99983.75;;;19.26;100.00
35551;BME280;21655;46.056;13.616;2023-06-10T04:13:16;99980.56;;;19.34;100.00
35551;BME280;21655;46.056;13.616;2023-06-10T04:15:41;99983.25;;;19.40;100.00
35551;BME280;21655;46.056;13.616;2023-06-10T04:18:07;99983.13;;;19.47;100.00
35551;BME280;21655;46.056;13.616;2023-06-10T04:20:32;99991.31;;;19.48;100.00
35551;BME280;21655;46.056;13.616;2023-06-10T04:22:58;99989.97;;;19.51;100.00
35551;BME280;21655;46.056;13.616;2023-06-10T04:25:25;99984.72;;;19.54;100.00
35551;BME280;21655;46.056;13.616;2023-06-10T04:27:51;99979.56;;;19.63;100.00
35551;BME280;21655;46.056;13.616;2023-06-10T04:30:17;99977.31;;;19.76;100.00
35551;BME280;21655;46.056;13.616;2023-06-10T04:32:43;99971.28;;;19.84;100.00
35551;BME280;21655;46.056;13.616;2023-06-10T04:35:11;99969.06;;;19.98;100.00
35551;BME280;21655;46.056;13.616;2023-06-10T04:37:37;99968.72;;;20.22;100.00
35551;BME280;21655;46.056;13.616;2023-06-10T04:40:02;99971.84;;;20.54;100.00
35551;BME280;21655;46.056;13.616;2023-06-10T04:42:28;99972.81;;;20.76;100.00
35551;BME280;21655;46.056;13.616;2023-06-10T04:44:53;99970.81;;;21.04;100.00
35551;BME280;21655;46.056;13.616;2023-06-10T04:47:19;99959.69;;;21.14;100.00
35551;BME280;21655;46.056;13.616;2023-06-10T04:49:45;99962.13;;;21.27;100.00
35551;BME280;21655;46.056;13.616;2023-06-10T04:52:10;99967.00;;;21.31;100.00
35551;BME280;21655;46.056;13.616;2023-06-10T04:54:36;99970.13;;;21.51;100.00
35551;BME280;21655;46.056;13.616;2023-06-10T04:57:01;99967.03;;;21.69;100.00
35551;BME280;21655;46.056;13.616;2023-06-10T04:59:27;99970.63;;;21.86;100.00
35551;BME280;21655;46.056;13.616;2023-06-10T05:01:52;99961.91;;;21.88;100.00
35551;BME280;21655;46.056;13.616;2023-06-10T05:04:17;99960.66;;;22.00;100.00
35551;BME280;21655;46.056;13.616;2023-06-10T05:06:43;99966.47;;;22.15;100.00
35551;BME280;21655;46.056;13.616;2023-06-10T05:09:09;99964.00;;;22.19;100.00
35551;BME280;21655;46.056;13.616;2023-06-10T05:11:35;99966.28;;;22.43;100.00
35551;BME280;21655;46.056;13.616;2023-06-10T05:14:00;99960.59;;;22.70;100.00
35551;BME280;21655;46.056;13.616;2023-06-10T05:16:25;99955.09;;;22.85;100.00
35551;BME280;21655;46.056;13.616;2023-06-10T05:18:51;99953.72;;;22.61;100.00
35551;BME280;21655;46.056;13.616;2023-06-10T05:21:17;99956.75;;;22.54;100.00
35551;BME280;21655;46.056;13.616;2023-06-10T05:23:42;99959.25;;;22.77;100.00
35551;BME280;21655;46.056;13.616;2023-06-10T05:26:08;99955.94;;;23.16;100.00
35551;BME280;21655;46.056;13.616;2023-06-10T05:28:33;99956.06;;;23.31;100.00
35551;BME280;21655;46.056;13.616;2023-06-10T05:30:59;99959.91;;;23.57;100.00
35551;BME280;21655;46.056;13.616;2023-06-10T05:33:24;99954.06;;;23.32;100.00
35551;BME280;21655;46.056;13.616;2023-06-10T05:35:49;99952.91;;;23.23;100.00
35551;BME280;21655;46.056;13.616;2023-06-10T05:38:15;99944.97;;;23.25;100.00
35551;BME280;21655;46.056;13.616;2023-06-10T05:40:40;99945.81;;;23.25;100.00
35551;BME280;21655;46.056;13.616;2023-06-10T05:43:06;99950.41;;;23.00;100.00
35551;BME280;21655;46.056;13.616;2023-06-10T05:45:31;99954.44;;;22.78;100.00
35551;BME280;21655;46.056;13.616;2023-06-10T05:47:56;99944.63;;;23.16;100.00
35551;BME280;21655;46.056;13.616;2023-06-10T05:50:24;99953.94;;;23.12;100.00
35551;BME280;21655;46.056;13.616;2023-06-10T05:52:50;99949.19;;;23.22;100.00
35551;BME280;21655;46.056;13.616;2023-06-10T05:55:17;99951.69;;;23.14;100.00
35551;BME280;21655;46.056;13.616;2023-06-10T05:57:42;99951.94;;;23.54;100.00
35551;BME280;21655;46.056;13.616;2023-06-10T06:00:08;99949.16;;;23.59;100.00
35551;BME280;21655;46.056;13.616;2023-06-10T06:02:34;99941.09;;;23.82;100.00
35551;BME280;21655;46.056;13.616;2023-06-10T06:04:59;99942.81;;;23.88;100.00
35551;BME280;21655;46.056;13.616;2023-06-10T06:07:25;99945.69;;;23.52;100.00
35551;BME280;21655;46.056;13.616;2023-06-10T06:09:50;99945.78;;;23.62;100.00
35551;BME280;21655;46.056;13.616;2023-06-10T06:12:16;99951.19;;;23.73;100.00
35551;BME280;21655;46.056;13.616;2023-06-10T06:14:41;99945.34;;;23.85;100.00
35551;BME280;21655;46.056;13.616;2023-06-10T06:17:07;99941.53;;;24.26;100.00
35551;BME280;21655;46.056;13.616;2023-06-10T06:19:33;99938.22;;;25.03;100.00
35551;BME280;21655;46.056;13.616;2023-06-10T06:21:58;99952.16;;;25.25;100.00
35551;BME280;21655;46.056;13.616;2023-06-10T06:24:25;99955.25;;;24.64;100.00
35551;BME280;21655;46.056;13.616;2023-06-10T06:26:50;99945.84;;;24.48;100.00
35551;BME280;21655;46.056;13.616;2023-06-10T06:29:16;99948.75;;;24.88;100.00
35551;BME280;21655;46.056;13.616;2023-06-10T06:31:41;99945.38;;;25.21;100.00
35551;BME280;21655;46.056;13.616;2023-06-10T06:34:07;99940.25;;;25.33;100.00
35551;BME280;21655;46.056;13.616;2023-06-10T06:36:32;99942.16;;;25.72;100.00
35551;BME280;21655;46.056;13.616;2023-06-10T06:38:57;99935.66;;;26.30;100.00
35551;BME280;21655;46.056;13.616;2023-06-10T06:41:26;99936.91;;;26.09;100.00
35551;BME280;21655;46.056;13.616;2023-06-10T06:43:51;99936.41;;;26.51;100.00
35551;BME280;21655;46.056;13.616;2023-06-10T06:46:16;99939.13;;;26.71;100.00
35551;BME280;21655;46.056;13.616;2023-06-10T06:48:42;99939.31;;;26.36;100.00
35551;BME280;21655;46.056;13.616;2023-06-10T06:51:07;99937.06;;;25.59;100.00
35551;BME280;21655;46.056;13.616;2023-06-10T06:53:32;99936.00;;;25.06;100.00
35551;BME280;21655;46.056;13.616;2023-06-10T06:55:58;99937.59;;;24.42;100.00
35551;BME280;21655;46.056;13.616;2023-06-10T06:58:23;99938.16;;;24.34;100.00
35551;BME280;21655;46.056;13.616;2023-06-10T07:00:49;99928.59;;;24.80;100.00
35551;BME280;21655;46.056;13.616;2023-06-10T07:03:14;99921.78;;;25.10;100.00
35551;BME280;21655;46.056;13.616;2023-06-10T07:05:40;99929.56;;;25.98;100.00
35551;BME280;21655;46.056;13.616;2023-06-10T07:08:06;99933.25;;;26.57;100.00
35551;BME280;21655;46.056;13.616;2023-06-10T07:10:31;99935.06;;;26.82;100.00
35551;BME280;21655;46.056;13.616;2023-06-10T07:12:56;99932.59;;;26.70;100.00
35551;BME280;21655;46.056;13.616;2023-06-10T07:15:22;99929.69;;;26.27;100.00
35551;BME280;21655;46.056;13.616;2023-06-10T07:17:47;99934.78;;;25.61;100.00
35551;BME280;21655;46.056;13.616;2023-06-10T07:20:13;99937.91;;;25.55;100.00
35551;BME280;21655;46.056;13.616;2023-06-10T07:22:40;99935.59;;;25.87;100.00
35551;BME280;21655;46.056;13.616;2023-06-10T07:25:06;99931.69;;;25.48;100.00
35551;BME280;21655;46.056;13.616;2023-06-10T07:27:31;99935.94;;;25.55;100.00
35551;BME280;21655;46.056;13.616;2023-06-10T07:29:57;99932.84;;;26.25;100.00
35551;BME280;21655;46.056;13.616;2023-06-10T07:32:22;99923.88;;;27.28;100.00
35551;BME280;21655;46.056;13.616;2023-06-10T07:34:49;99920.53;;;27.97;100.00
35551;BME280;21655;46.056;13.616;2023-06-10T07:37:14;99926.13;;;28.86;100.00
35551;BME280;21655;46.056;13.616;2023-06-10T07:39:40;99934.50;;;29.46;100.00
35551;BME280;21655;46.056;13.616;2023-06-10T07:42:06;99919.91;;;30.06;100.00
35551;BME280;21655;46.056;13.616;2023-06-10T07:44:31;99922.31;;;30.26;100.00
35551;BME280;21655;46.056;13.616;2023-06-10T07:46:57;99910.41;;;30.46;100.00
35551;BME280;21655;46.056;13.616;2023-06-10T07:49:23;99915.69;;;31.02;100.00
35551;BME280;21655;46.056;13.616;2023-06-10T07:51:50;99914.34;;;31.65;100.00
35551;BME280;21655;46.056;13.616;2023-06-10T07:54:15;99910.38;;;31.61;100.00
35551;BME280;21655;46.056;13.616;2023-06-10T07:56:41;99912.22;;;31.57;100.00
35551;BME280;21655;46.056;13.616;2023-06-10T07:59:06;99915.00;;;31.70;100.00
35551;BME280;21655;46.056;13.616;2023-06-10T08:01:31;99918.72;;;31.40;100.00
35551;BME280;21655;46.056;13.616;2023-06-10T08:03:58;99919.53;;;31.41;100.00
35551;BME280;21655;46.056;13.616;2023-06-10T08:06:23;99921.69;;;31.88;100.00
35551;BME280;21655;46.056;13.616;2023-06-10T08:08:49;99920.88;;;31.96;100.00
35551;BME280;21655;46.056;13.616;2023-06-10T08:11:14;99912.88;;;32.71;98.57
35551;BME280;21655;46.056;13.616;2023-06-10T08:13:40;99904.25;;;32.71;96.02
35551;BME280;21655;46.056;13.616;2023-06-10T08:16:05;99903.22;;;32.67;86.36
35551;BME280;21655;46.056;13.616;2023-06-10T08:18:31;99908.53;;;31.56;93.84
35551;BME280;21655;46.056;13.616;2023-06-10T08:20:57;99915.13;;;31.13;100.00
35551;BME280;21655;46.056;13.616;2023-06-10T08:23:23;99906.22;;;31.45;100.00
35551;BME280;21655;46.056;13.616;2023-06-10T08:25:49;99906.88;;;31.94;94.68
35551;BME280;21655;46.056;13.616;2023-06-10T08:28:14;99902.69;;;32.09;96.11
35551;BME280;21655;46.056;13.616;2023-06-10T08:30:40;99901.84;;;32.56;91.36
35551;BME280;21655;46.056;13.616;2023-06-10T08:33:05;99899.47;;;32.58;86.14
35551;BME280;21655;46.056;13.616;2023-06-10T08:35:31;99904.06;;;32.76;84.82
35551;BME280;21655;46.056;13.616;2023-06-10T08:37:56;99906.63;;;32.13;86.45
35551;BME280;21655;46.056;13.616;2023-06-10T08:40:21;99899.09;;;31.95;98.11
35551;BME280;21655;46.056;13.616;2023-06-10T08:43:00;99888.66;;;32.46;95.35
35551;BME280;21655;46.056;13.616;2023-06-10T08:45:31;99897.16;;;32.77;92.83
35551;BME280;21655;46.056;13.616;2023-06-10T08:47:57;99893.44;;;33.02;84.12
35551;BME280;21655;46.056;13.616;2023-06-10T08:50:23;99893.75;;;33.34;83.38
35551;BME280;21655;46.056;13.616;2023-06-10T08:52:50;99893.16;;;33.74;81.15
35551;BME280;21655;46.056;13.616;2023-06-10T08:55:23;99885.09;;;34.05;73.61
35551;BME280;21655;46.056;13.616;2023-06-10T08:57:52;99887.66;;;33.98;75.56
35551;BME280;21655;46.056;13.616;2023-06-10T09:00:18;99882.41;;;34.00;72.56
35551;BME280;21655;46.056;13.616;2023-06-10T09:02:44;99881.13;;;34.97;73.56
35551;BME280;21655;46.056;13.616;2023-06-10T09:05:10;99879.34;;;35.04;68.21
35551;BME280;21655;46.056;13.616;2023-06-10T09:07:35;99875.88;;;34.49;62.00
35551;BME280;21655;46.056;13.616;2023-06-10T09:10:03;99874.88;;;34.74;59.15
35551;BME280;21655;46.056;13.616;2023-06-10T09:12:30;99872.72;;;33.59;67.36
35551;BME280;21655;46.056;13.616;2023-06-10T09:14:55;99878.84;;;34.03;61.65
35551;BME280;21655;46.056;13.616;2023-06-10T09:17:21;99880.94;;;34.52;59.86
35551;BME280;21655;46.056;13.616;2023-06-10T09:19:47;99874.94;;;35.27;56.63
35551;BME280;21655;46.056;13.616;2023-06-10T09:22:12;99871.00;;;34.41;59.39
35551;BME280;21655;46.056;13.616;2023-06-10T09:24:39;99877.38;;;33.89;66.36
35551;BME280;21655;46.056;13.616;2023-06-10T09:27:08;99866.75;;;34.18;66.33
35551;BME280;21655;46.056;13.616;2023-06-10T09:30:03;99868.34;;;34.86;53.69
35551;BME280;21655;46.056;13.616;2023-06-10T09:32:29;99864.19;;;33.25;62.39
35551;BME280;21655;46.056;13.616;2023-06-10T09:34:55;99867.03;;;32.57;70.59
35551;BME280;21655;46.056;13.616;2023-06-10T09:37:22;99866.38;;;32.60;75.23
35551;BME280;21655;46.056;13.616;2023-06-10T09:40:03;99860.31;;;33.67;64.76
35551;BME280;21655;46.056;13.616;2023-06-10T09:42:33;99856.00;;;34.36;65.10
35551;BME280;21655;46.056;13.616;2023-06-10T09:44:59;99858.09;;;33.01;67.86
35551;BME280;21655;46.056;13.616;2023-06-10T09:47:25;99864.00;;;32.54;78.37
35551;BME280;21655;46.056;13.616;2023-06-10T09:49:51;99861.97;;;32.46;82.41
35551;BME280;21655;46.056;13.616;2023-06-10T09:52:36;99857.94;;;32.64;82.76
35551;BME280;21655;46.056;13.616;2023-06-10T09:55:02;99858.59;;;32.69;81.93
35551;BME280;21655;46.056;13.616;2023-06-10T09:57:32;99853.53;;;33.09;71.63
35551;BME280;21655;46.056;13.616;2023-06-10T09:59:58;99855.06;;;32.98;69.45
35551;BME280;21655;46.056;13.616;2023-06-10T10:02:24;99853.38;;;32.54;78.02
35551;BME280;21655;46.056;13.616;2023-06-10T10:04:49;99858.19;;;32.20;83.23
35551;BME280;21655;46.056;13.616;2023-06-10T10:07:15;99851.94;;;33.45;67.64
35551;BME280;21655;46.056;13.616;2023-06-10T10:09:41;99840.59;;;33.57;75.81
35551;BME280;21655;46.056;13.616;2023-06-10T10:12:12;99843.25;;;33.70;77.09
35551;BME280;21655;46.056;13.616;2023-06-10T10:14:39;99842.88;;;33.18;70.01
35551;BME280;21655;46.056;13.616;2023-06-10T10:17:10;99842.00;;;32.32;81.86
35551;BME280;21655;46.056;13.616;2023-06-10T10:19:42;99836.25;;;32.32;84.53
35551;BME280;21655;46.056;13.616;2023-06-10T10:22:13;99841.00;;;32.37;81.57
35551;BME280;21655;46.056;13.616;2023-06-10T10:24:55;99842.53;;;33.02;76.59
35551;BME280;21655;46.056;13.616;2023-06-10T10:27:49;99834.09;;;33.68;69.06
35551;BME280;21655;46.056;13.616;2023-06-10T10:30:17;99834.44;;;32.96;71.03
35551;BME280;21655;46.056;13.616;2023-06-10T10:35:21;99825.53;;;31.60;83.49
35551;BME280;21655;46.056;13.616;2023-06-10T10:37:49;99827.00;;;30.97;88.23
35551;BME280;21655;46.056;13.616;2023-06-10T10:40:16;99806.72;;;31.76;83.28
35551;BME280;21655;46.056;13.616;2023-06-10T10:42:42;99816.31;;;32.19;76.75
35551;BME280;21655;46.056;13.616;2023-06-10T10:45:09;99828.19;;;31.48;81.22
35551;BME280;21655;46.056;13.616;2023-06-10T10:47:36;99820.44;;;31.57;81.86
35551;BME280;21655;46.056;13.616;2023-06-10T10:50:13;99824.84;;;31.24;86.63
35551;BME280;21655;46.056;13.616;2023-06-10T10:52:52;99807.78;;;31.19;82.10
35551;BME280;21655;46.056;13.616;2023-06-10T10:55:19;99812.38;;;30.41;100.00
35551;BME280;21655;46.056;13.616;2023-06-10T10:57:53;99804.94;;;29.37;100.00
35551;BME280;21655;46.056;13.616;2023-06-10T11:00:43;99805.38;;;29.71;100.00
35551;BME280;21655;46.056;13.616;2023-06-10T11:03:16;99810.56;;;30.09;100.00
35551;BME280;21655;46.056;13.616;2023-06-10T11:05:46;99821.69;;;29.57;100.00
35551;BME280;21655;46.056;13.616;2023-06-10T11:10:58;99872.13;;;28.89;100.00
35551;BME280;21655;46.056;13.616;2023-06-10T11:13:25;99886.50;;;27.35;100.00
35551;BME280;21655;46.056;13.616;2023-06-10T11:15:52;99891.94;;;26.21;100.00
35551;BME280;21655;46.056;13.616;2023-06-10T11:18:35;99919.19;;;25.44;100.00
35551;BME280;21655;46.056;13.616;2023-06-10T11:21:04;99944.78;;;24.84;100.00
35551;BME280;21655;46.056;13.616;2023-06-10T11:31:27;99982.06;;;19.87;100.00
35551;BME280;21655;46.056;13.616;2023-06-10T11:33:54;99982.09;;;19.64;100.00
35551;BME280;21655;46.056;13.616;2023-06-10T11:36:21;99981.97;;;19.71;100.00
35551;BME280;21655;46.056;13.616;2023-06-10T11:38:46;99994.47;;;19.63;100.00
35551;BME280;21655;46.056;13.616;2023-06-10T11:41:13;99982.06;;;19.36;100.00
35551;BME280;21655;46.056;13.616;2023-06-10T11:43:43;99969.19;;;19.40;100.00
35551;BME280;21655;46.056;13.616;2023-06-10T11:46:10;99944.47;;;19.54;100.00
35551;BME280;21655;46.056;13.616;2023-06-10T11:48:35;99935.91;;;19.49;100.00
35551;BME280;21655;46.056;13.616;2023-06-10T11:51:06;99930.53;;;19.47;100.00
35551;BME280;21655;46.056;13.616;2023-06-10T11:53:32;99936.59;;;19.67;100.00
35551;BME280;21655;46.056;13.616;2023-06-10T11:55:57;99932.66;;;19.68;100.00
35551;BME280;21655;46.056;13.616;2023-06-10T11:58:23;99936.63;;;19.95;100.00
35551;BME280;21655;46.056;13.616;2023-06-10T12:00:54;99924.59;;;20.00;100.00
35551;BME280;21655;46.056;13.616;2023-06-10T12:03:21;99936.06;;;20.21;100.00
35551;BME280;21655;46.056;13.616;2023-06-10T12:06:06;99949.84;;;20.23;100.00
35551;BME280;21655;46.056;13.616;2023-06-10T12:08:32;99952.53;;;20.29;100.00
35551;BME280;21655;46.056;13.616;2023-06-10T12:10:58;99955.16;;;20.19;100.00
35551;BME280;21655;46.056;13.616;2023-06-10T12:13:27;99954.91;;;20.21;100.00
35551;BME280;21655;46.056;13.616;2023-06-10T12:15:55;99957.56;;;20.27;100.00
35551;BME280;21655;46.056;13.616;2023-06-10T12:18:30;99957.84;;;20.59;100.00
35551;BME280;21655;46.056;13.616;2023-06-10T12:20:56;99953.69;;;20.78;100.00
35551;BME280;21655;46.056;13.616;2023-06-10T12:23:21;99946.69;;;20.80;100.00
35551;BME280;21655;46.056;13.616;2023-06-10T12:25:52;99941.50;;;20.89;100.00
35551;BME280;21655;46.056;13.616;2023-06-10T12:28:21;99945.16;;;21.22;100.00
35551;BME280;21655;46.056;13.616;2023-06-10T12:30:47;99930.47;;;21.41;100.00
35551;BME280;21655;46.056;13.616;2023-06-10T12:33:19;99925.34;;;21.76;100.00
35551;BME280;21655;46.056;13.616;2023-06-10T12:35:49;99908.69;;;22.28;100.00
35551;BME280;21655;46.056;13.616;2023-06-10T12:38:21;99895.28;;;22.71;100.00
35551;BME280;21655;46.056;13.616;2023-06-10T12:40:47;99882.50;;;23.36;100.00
35551;BME280;21655;46.056;13.616;2023-06-10T12:43:12;99884.63;;;23.66;100.00
35551;BME280;21655;46.056;13.616;2023-06-10T12:45:39;99879.56;;;23.73;100.00
35551;BME280;21655;46.056;13.616;2023-06-10T12:48:10;99884.00;;;23.54;100.00
35551;BME280;21655;46.056;13.616;2023-06-10T12:50:36;99887.44;;;23.56;100.00
35551;BME280;21655;46.056;13.616;2023-06-10T12:53:05;99887.63;;;23.44;100.00